Amarillo, TX (79101)

02:47 AM CDT die 05o July, anno 2015 (GMT -0500)
Oliver-Eakle | | Change Station
CLOSE
Current Station
Personal Weather Stations
Location: Amarillo, TX
Elevation: 3678 ft
Nearby Weather Stations

Elev 3678 ft 35.19 °N, 101.84 °W | Updated 6 seconds ago

Serena
Serena
72.7 °F
Feels Like 75 °F
N
0.7
Ventus Variabilis Ventus from Magis Auster quam Zephyrus
Gusts 4.6 mph

Hodie
High -- | Low -- °F
--% Chance of Precip.
Yesterday
High -- | Low -- °F
Precip. -- in
6:38 AM 9:05 PM
Waning Gibbous, 87% visible
Pressio 29.86 in
Visibilitas 10.0 milia passuum
Clouds Serena
Index Caloris 75 °F
Frigus in quo Ros apparet 63 °F
Umor 71%
Rainfall 0.00 in
Snow Depth Not available.
UV 0 out of 12
Pollen 4.50 out of 12
Air Quality Not available.
Flu Activity Not available.
METAR KAMA 050653Z AUTO 18010KT 10SM CLR 23/17 A3003 RMK AO2 SLP112 T02280167 $

More Conditions Fewer Conditions

Pressio 29.86 in
Visibilitas 10.0 milia passuum
Clouds Serena
Index Caloris 75 °F
Frigus in quo Ros apparet 63 °F
Umor 71%
Rainfall 0.00 in
Snow Depth Not available.
UV 0 out of 12
Pollen 4.50 out of 12
Air Quality Not available.
Flu Activity Not available.
METAR KAMA 050653Z AUTO 18010KT 10SM CLR 23/17 A3003 RMK AO2 SLP112 T02280167 $

More Conditions Fewer Conditions

10-Day Weather Forecast

×

Almanac

Astronomy

Jul. 05, 2015 Rise Set
Actual Time
Civil Twilight
Nautical Twilight
Astronomical Twilight
Moon
Length Of Visible Light
Length of Day
Tomorrow will be .
, % of the Moon is Illuminated

Today's Extremes

State Highs State Lows

Community

WunderPhotos

Upload Photos

1,835,215 photos uploaded!

WunderBlogs® & News

Nearby

Air Quality

  Air Quality AQ Index Pollutant
Not available.

Snow Depth

Station Depth Elevation

Earthquake Activity

City Distance Mag. Time & Date
Minimum magnitude displayed is 2.5.

Coastal Water Temperatures

Locus Calor

Stations

Nearby Weather Stations

Station Location Temp Frigus Venti Frigus in quo Ros apparet Umor Ventus Precip. Elev Renovata Type